createdAt,value
2019-06-01T00:00:27.803Z,13.00
2019-06-01T00:02:58.613Z,13.00
2019-06-01T00:05:35.094Z,13.00
2019-06-01T00:08:06.214Z,12.90
2019-06-01T00:10:36.832Z,12.80
2019-06-01T00:13:07.461Z,12.80
2019-06-01T00:15:38.365Z,12.80
2019-06-01T00:18:08.951Z,12.80
2019-06-01T00:20:40.089Z,12.80
2019-06-01T00:23:10.951Z,12.80
2019-06-01T00:25:42.592Z,12.80
2019-06-01T00:28:13.705Z,12.70
2019-06-01T00:30:44.331Z,12.70
2019-06-01T00:33:15.511Z,12.70
2019-06-01T00:35:47.403Z,12.70
2019-06-01T00:38:18.093Z,12.60
2019-06-01T00:40:48.651Z,12.60
2019-06-01T00:43:20.514Z,12.60
2019-06-01T00:45:51.130Z,12.60
2019-06-01T00:48:21.749Z,12.60
2019-06-01T00:50:53.199Z,12.50
2019-06-01T00:53:23.955Z,12.40
2019-06-01T00:55:54.518Z,12.40
2019-06-01T00:58:25.115Z,12.40
2019-06-01T01:00:55.688Z,12.40
2019-06-01T01:03:26.426Z,12.40
2019-06-01T01:05:57.043Z,12.40
2019-06-01T01:08:27.660Z,12.30
2019-06-01T01:10:58.514Z,12.30
2019-06-01T01:13:29.353Z,12.30
2019-06-01T01:16:00.034Z,12.30
2019-06-01T01:18:30.680Z,12.30
2019-06-01T01:21:01.451Z,12.30
2019-06-01T01:23:32.056Z,12.20
2019-06-01T01:26:03.858Z,12.20
2019-06-01T01:28:34.620Z,12.20
2019-06-01T01:31:13.334Z,12.20
2019-06-01T01:33:38.396Z,12.10
2019-06-01T01:36:09.535Z,12.10
2019-06-01T01:38:40.141Z,12.10
2019-06-01T01:41:11.028Z,12.10
2019-06-01T01:43:41.613Z,12.00
2019-06-01T01:46:12.446Z,12.00
2019-06-01T01:48:43.027Z,12.00
2019-06-01T01:51:13.743Z,11.90
2019-06-01T01:53:44.496Z,11.80
2019-06-01T01:56:15.340Z,11.70
2019-06-01T01:58:45.896Z,11.70
2019-06-01T02:01:22.753Z,11.70
2019-06-01T02:03:48.972Z,11.70
2019-06-01T02:06:19.845Z,11.70
2019-06-01T02:08:51.024Z,11.70
2019-06-01T02:11:21.768Z,11.70
2019-06-01T02:13:53.633Z,11.70
2019-06-01T02:16:24.607Z,11.60
2019-06-01T02:18:55.950Z,11.60
2019-06-01T02:21:27.543Z,11.60
2019-06-01T02:23:59.080Z,11.60
2019-06-01T02:26:29.754Z,11.70
2019-06-01T02:29:01.995Z,11.70
2019-06-01T02:31:41.458Z,11.60
2019-06-01T02:34:06.122Z,11.70
2019-06-01T02:36:37.023Z,11.60
2019-06-01T02:39:10.504Z,11.60
2019-06-01T02:41:41.391Z,11.60
2019-06-01T02:44:11.990Z,11.50
2019-06-01T02:46:42.755Z,11.50
2019-06-01T02:49:13.660Z,11.50
2019-06-01T02:51:44.475Z,11.50
2019-06-01T02:54:15.357Z,11.50
2019-06-01T02:56:45.943Z,11.40
2019-06-01T02:59:16.808Z,11.30
2019-06-01T03:01:57.461Z,11.20
2019-06-01T03:04:21.265Z,11.20
2019-06-01T03:06:53.724Z,11.20
2019-06-01T03:09:26.578Z,11.30
2019-06-01T03:12:00.929Z,11.30
2019-06-01T03:14:35.510Z,11.30
2019-06-01T03:17:06.171Z,11.30
2019-06-01T03:19:40.791Z,11.30
2019-06-01T03:22:15.187Z,11.20
2019-06-01T03:24:48.174Z,11.20
2019-06-01T03:27:22.569Z,11.10
2019-06-01T03:29:57.691Z,11.10
2019-06-01T03:32:36.199Z,11.00
2019-06-01T03:35:01.004Z,11.10
2019-06-01T03:37:31.986Z,11.10
2019-06-01T03:40:10.283Z,11.10
2019-06-01T03:42:37.707Z,11.10
2019-06-01T03:45:09.517Z,11.10
2019-06-01T03:47:40.297Z,11.10
2019-06-01T03:50:11.180Z,11.20
2019-06-01T03:52:41.920Z,11.20
2019-06-01T03:55:12.774Z,11.10
2019-06-01T03:57:43.693Z,11.20
2019-06-01T04:00:14.256Z,11.30
2019-06-01T04:02:44.887Z,11.40
2019-06-01T04:05:16.012Z,11.50
2019-06-01T04:07:46.925Z,11.60
2019-06-01T04:10:17.873Z,11.70
2019-06-01T04:12:48.433Z,11.50
2019-06-01T04:15:19.327Z,11.60
2019-06-01T04:17:49.938Z,11.70
2019-06-01T04:20:21.041Z,11.80
2019-06-01T04:22:51.882Z,11.70
2019-06-01T04:25:22.458Z,11.80
2019-06-01T04:27:53.026Z,11.80
2019-06-01T04:30:28.224Z,11.90
2019-06-01T04:32:59.021Z,12.00
2019-06-01T04:35:29.879Z,12.10
2019-06-01T04:38:00.453Z,12.10
2019-06-01T04:40:31.039Z,12.20
2019-06-01T04:43:01.953Z,12.10
2019-06-01T04:45:32.532Z,12.20
2019-06-01T04:48:04.358Z,12.40
2019-06-01T04:50:35.013Z,12.50
2019-06-01T04:53:06.861Z,12.60
2019-06-01T04:55:37.524Z,12.70
2019-06-01T04:58:08.968Z,13.20
2019-06-01T05:00:39.955Z,14.10
2019-06-01T05:03:11.889Z,14.60
2019-06-01T05:05:42.982Z,15.10
2019-06-01T05:08:15.506Z,15.30
2019-06-01T05:10:46.248Z,15.00
2019-06-01T05:13:17.035Z,14.80
2019-06-01T05:15:47.924Z,14.60
2019-06-01T05:18:19.730Z,14.90
2019-06-01T05:20:50.453Z,14.90
2019-06-01T05:23:21.345Z,14.30
2019-06-01T05:25:53.330Z,14.10
2019-06-01T05:28:24.125Z,14.30
2019-06-01T05:30:54.970Z,14.60
2019-06-01T05:33:37.041Z,14.70
2019-06-01T05:35:57.978Z,15.00
2019-06-01T05:38:28.554Z,14.70
2019-06-01T05:40:59.163Z,15.10
2019-06-01T05:43:30.038Z,15.20
2019-06-01T05:46:00.594Z,15.10
2019-06-01T05:48:31.188Z,15.80
2019-06-01T05:51:02.006Z,15.90
2019-06-01T05:53:32.570Z,17.30
2019-06-01T05:56:04.294Z,17.30
2019-06-01T05:58:35.188Z,17.40
2019-06-01T06:01:06.413Z,16.90
2019-06-01T06:03:40.285Z,17.50
2019-06-01T06:06:09.637Z,18.10
2019-06-01T06:08:40.529Z,17.70
2019-06-01T06:11:11.340Z,18.10
2019-06-01T06:13:42.474Z,18.90
2019-06-01T06:16:13.790Z,19.80
2019-06-01T06:18:44.793Z,20.30
2019-06-01T06:21:16.071Z,19.90
2019-06-01T06:23:47.260Z,20.00
2019-06-01T06:26:19.100Z,21.00
2019-06-01T06:28:51.199Z,20.90
2019-06-01T06:31:23.283Z,21.10
2019-06-01T06:33:56.908Z,19.60
2019-06-01T06:36:27.144Z,21.30
2019-06-01T06:38:58.301Z,22.50
2019-06-01T06:41:29.137Z,22.90
2019-06-01T06:44:00.316Z,22.80
2019-06-01T06:46:31.139Z,22.30
2019-06-01T06:49:02.298Z,21.20
2019-06-01T06:51:33.186Z,20.80
2019-06-01T06:54:04.820Z,21.10
2019-06-01T06:56:35.656Z,22.00
2019-06-01T06:59:06.436Z,22.40
2019-06-01T07:01:37.255Z,22.60
2019-06-01T07:04:12.564Z,22.00
2019-06-01T07:06:40.814Z,22.80
2019-06-01T07:09:11.710Z,22.70
2019-06-01T07:12:01.174Z,23.70
2019-06-01T07:14:35.267Z,22.80
2019-06-01T07:17:19.401Z,22.30
2019-06-01T07:19:51.516Z,22.70
2019-06-01T07:22:26.046Z,22.30
2019-06-01T07:25:02.123Z,22.00
2019-06-01T07:27:33.694Z,22.80
2019-06-01T07:30:04.888Z,24.10
2019-06-01T07:32:35.725Z,24.40
2019-06-01T07:35:07.005Z,24.30
2019-06-01T07:37:37.912Z,24.30
2019-06-01T07:40:13.304Z,24.20
2019-06-01T07:42:42.245Z,24.00
2019-06-01T07:45:13.977Z,24.10
2019-06-01T07:47:44.847Z,24.60
2019-06-01T07:50:15.761Z,24.90
2019-06-01T07:52:46.599Z,24.90
2019-06-01T07:55:17.375Z,25.00
2019-06-01T07:57:48.207Z,25.00
2019-06-01T08:00:18.856Z,25.60
2019-06-01T08:02:49.712Z,25.60
2019-06-01T08:05:23.235Z,25.80
2019-06-01T08:07:53.365Z,26.20
2019-06-01T08:10:26.006Z,26.20
2019-06-01T08:12:57.454Z,26.30
2019-06-01T08:15:29.477Z,26.30
2019-06-01T08:18:00.765Z,26.50
2019-06-01T08:20:32.233Z,26.60
2019-06-01T08:23:06.041Z,27.50
2019-06-01T08:25:37.071Z,27.10
2019-06-01T08:28:08.123Z,28.00
2019-06-01T08:30:39.016Z,28.50
2019-06-01T08:33:09.853Z,28.40
2019-06-01T08:35:40.815Z,28.80
2019-06-01T08:38:12.013Z,27.00
2019-06-01T08:40:44.951Z,27.10
2019-06-01T08:43:15.757Z,27.20
2019-06-01T08:45:46.639Z,27.70
2019-06-01T08:48:17.477Z,26.60
2019-06-01T08:50:48.382Z,26.60
2019-06-01T08:53:19.625Z,27.10
2019-06-01T08:55:50.676Z,28.30
2019-06-01T08:58:21.440Z,28.90
2019-06-01T09:00:52.634Z,29.00
2019-06-01T09:03:23.656Z,27.30
2019-06-01T09:05:54.531Z,27.10
2019-06-01T09:08:25.998Z,27.00
2019-06-01T09:10:58.015Z,26.80
2019-06-01T09:13:29.120Z,26.70
2019-06-01T09:16:00.083Z,27.10
2019-06-01T09:18:31.567Z,27.00
2019-06-01T09:21:02.515Z,28.00
2019-06-01T09:23:33.779Z,28.30
2019-06-01T09:26:08.104Z,28.10
2019-06-01T09:28:39.033Z,28.00
2019-06-01T09:31:09.648Z,27.20
2019-06-01T09:33:40.509Z,26.70
2019-06-01T09:36:11.349Z,26.20
2019-06-01T09:38:42.368Z,27.30
2019-06-01T09:41:13.352Z,27.90
2019-06-01T09:43:47.346Z,27.30
2019-06-01T09:46:21.211Z,27.80
2019-06-01T09:48:52.334Z,26.70
2019-06-01T09:51:22.926Z,26.40
2019-06-01T09:53:53.842Z,26.60
2019-06-01T09:56:24.720Z,26.30
2019-06-01T09:58:55.554Z,26.60
2019-06-01T10:01:32.710Z,26.80
2019-06-01T10:04:04.470Z,27.00
2019-06-01T10:06:36.683Z,27.60
2019-06-01T10:09:09.728Z,27.40
2019-06-01T10:11:40.638Z,27.30
2019-06-01T10:14:15.732Z,26.80
2019-06-01T10:16:55.561Z,26.80
2019-06-01T10:19:26.384Z,26.60
2019-06-01T10:21:57.246Z,26.80
2019-06-01T10:24:28.643Z,26.70
2019-06-01T10:26:59.518Z,27.00
2019-06-01T10:29:39.990Z,27.10
2019-06-01T10:32:12.775Z,27.00
2019-06-01T10:34:43.740Z,26.70
2019-06-01T10:37:14.618Z,26.90
2019-06-01T10:39:45.458Z,27.10
2019-06-01T10:42:16.439Z,26.50
2019-06-01T10:44:47.313Z,25.90
2019-06-01T10:47:18.227Z,25.90
2019-06-01T10:49:49.103Z,26.20
2019-06-01T10:52:19.787Z,26.60
2019-06-01T10:54:50.681Z,26.70
2019-06-01T10:57:21.304Z,26.30
2019-06-01T10:59:52.165Z,26.20
2019-06-01T11:02:22.936Z,26.10
2019-06-01T11:04:53.843Z,26.20
2019-06-01T11:07:24.722Z,26.00
2019-06-01T11:09:55.734Z,26.00
2019-06-01T11:12:26.717Z,26.00
2019-06-01T11:14:57.625Z,25.90
2019-06-01T11:17:28.759Z,25.70
2019-06-01T11:19:59.934Z,25.50
2019-06-01T11:22:31.009Z,25.50
2019-06-01T11:25:02.047Z,25.60
2019-06-01T11:27:33.593Z,25.50
2019-06-01T11:30:06.472Z,25.60
2019-06-01T11:32:41.414Z,25.80
2019-06-01T11:35:14.085Z,25.60
2019-06-01T11:37:44.932Z,25.70
2019-06-01T11:40:16.554Z,25.80
2019-06-01T11:42:47.918Z,26.20
2019-06-01T11:45:18.967Z,26.30
2019-06-01T11:47:50.046Z,25.80
2019-06-01T11:50:21.024Z,25.90
2019-06-01T11:52:52.029Z,25.90
2019-06-01T11:55:23.172Z,25.70
2019-06-01T11:57:54.093Z,25.70
2019-06-01T12:00:27.162Z,25.70
2019-06-01T12:02:58.185Z,25.80
2019-06-01T12:05:32.421Z,25.70
2019-06-01T12:08:04.642Z,25.90
2019-06-01T12:10:36.625Z,25.80
2019-06-01T12:13:07.463Z,25.60
2019-06-01T12:15:38.517Z,25.30
2019-06-01T12:18:09.224Z,25.10
2019-06-01T12:20:40.728Z,24.90
2019-06-01T12:23:11.681Z,24.70
2019-06-01T12:25:42.723Z,24.70
2019-06-01T12:28:14.184Z,24.90
2019-06-01T12:30:45.819Z,25.10
2019-06-01T12:33:16.999Z,25.30
2019-06-01T12:35:48.178Z,25.40
2019-06-01T12:38:19.078Z,25.20
2019-06-01T12:40:50.157Z,25.40
2019-06-01T12:43:20.974Z,25.60
2019-06-01T12:46:06.355Z,25.60
2019-06-01T12:48:24.441Z,25.70
2019-06-01T12:50:55.354Z,25.70
2019-06-01T12:53:26.336Z,25.90
2019-06-01T12:55:57.211Z,25.80
2019-06-01T12:58:28.097Z,25.80
2019-06-01T13:01:02.631Z,25.90
2019-06-01T13:03:31.665Z,25.90
2019-06-01T13:06:02.917Z,26.10
2019-06-01T13:08:34.264Z,25.70
2019-06-01T13:11:08.160Z,25.70
2019-06-01T13:13:45.248Z,25.90
2019-06-01T13:16:15.966Z,25.90
2019-06-01T13:18:47.401Z,25.90
2019-06-01T13:21:18.756Z,26.00
2019-06-01T13:23:49.732Z,26.30
2019-06-01T13:26:20.641Z,26.20
2019-06-01T13:28:52.612Z,26.20
2019-06-01T13:31:23.451Z,25.80
2019-06-01T13:33:54.495Z,26.00
2019-06-01T13:36:25.396Z,25.90
2019-06-01T13:38:56.276Z,25.80
2019-06-01T13:41:27.192Z,25.80
2019-06-01T13:43:59.729Z,25.90
2019-06-01T13:46:30.599Z,25.90
2019-06-01T13:49:04.382Z,25.90
2019-06-01T13:51:35.395Z,25.90
2019-06-01T13:54:06.486Z,25.90
2019-06-01T13:56:37.349Z,25.80
2019-06-01T13:59:08.329Z,25.70
2019-06-01T14:01:39.203Z,25.70
2019-06-01T14:04:10.050Z,25.90
2019-06-01T14:06:41.212Z,25.70
2019-06-01T14:09:15.647Z,25.70
2019-06-01T14:11:47.393Z,25.50
2019-06-01T14:14:21.156Z,25.40
2019-06-01T14:16:51.739Z,25.50
2019-06-01T14:19:26.187Z,25.80
2019-06-01T14:21:56.810Z,25.80
2019-06-01T14:24:27.712Z,25.70
2019-06-01T14:26:59.429Z,25.80
2019-06-01T14:29:30.401Z,25.60
2019-06-01T14:32:01.257Z,25.30
2019-06-01T14:34:32.144Z,25.40
2019-06-01T14:37:03.031Z,25.30
2019-06-01T14:39:33.654Z,25.20
2019-06-01T14:42:05.296Z,25.10
2019-06-01T14:44:36.156Z,25.10
2019-06-01T14:47:07.323Z,25.10
2019-06-01T14:49:38.222Z,25.10
2019-06-01T14:52:09.167Z,25.20
2019-06-01T14:54:40.048Z,24.90
2019-06-01T14:57:11.245Z,24.90
2019-06-01T14:59:42.131Z,24.70
2019-06-01T15:02:13.502Z,24.80
2019-06-01T15:04:44.410Z,24.70
2019-06-01T15:07:15.227Z,24.70
2019-06-01T15:09:46.098Z,24.50
2019-06-01T15:12:17.275Z,24.50
2019-06-01T15:14:48.509Z,24.30
2019-06-01T15:17:19.629Z,24.50
2019-06-01T15:19:51.864Z,24.40
2019-06-01T15:22:22.669Z,24.30
2019-06-01T15:24:54.249Z,24.10
2019-06-01T15:27:25.167Z,24.30
2019-06-01T15:29:56.971Z,24.40
2019-06-01T15:32:27.875Z,24.10
2019-06-01T15:34:59.871Z,23.90
2019-06-01T15:37:31.426Z,23.70
2019-06-01T15:40:03.063Z,23.70
2019-06-01T15:42:33.758Z,23.60
2019-06-01T15:45:05.759Z,23.50
2019-06-01T15:47:36.677Z,23.50
2019-06-01T15:50:11.010Z,23.50
2019-06-01T15:52:41.862Z,23.40
2019-06-01T15:55:12.605Z,23.40
2019-06-01T15:57:43.534Z,23.30
2019-06-01T16:00:35.114Z,23.30
2019-06-01T16:03:06.258Z,23.50
2019-06-01T16:05:37.451Z,23.60
2019-06-01T16:08:14.323Z,23.70
2019-06-01T16:10:45.571Z,23.20
2019-06-01T16:13:16.496Z,22.90
2019-06-01T16:15:47.489Z,22.90
2019-06-01T16:18:18.447Z,22.80
2019-06-01T16:20:49.886Z,23.00
2019-06-01T16:23:20.752Z,22.80
2019-06-01T16:26:03.687Z,22.80
2019-06-01T16:28:24.084Z,22.70
2019-06-01T16:30:56.360Z,22.70
2019-06-01T16:33:29.767Z,22.60
2019-06-01T16:36:01.018Z,22.50
2019-06-01T16:38:31.949Z,22.70
2019-06-01T16:41:03.440Z,22.80
2019-06-01T16:43:34.345Z,22.70
2019-06-01T16:46:06.143Z,22.60
2019-06-01T16:48:37.354Z,22.60
2019-06-01T16:51:10.657Z,22.60
2019-06-01T16:53:41.530Z,22.60
2019-06-01T16:56:12.463Z,22.40
2019-06-01T16:58:43.367Z,22.40
2019-06-01T17:01:14.249Z,22.50
2019-06-01T17:03:45.897Z,22.60
2019-06-01T17:06:16.813Z,22.60
2019-06-01T17:08:47.647Z,22.60
2019-06-01T17:11:19.659Z,22.60
2019-06-01T17:13:50.530Z,22.40
2019-06-01T17:16:21.445Z,22.30
2019-06-01T17:18:52.092Z,22.40
2019-06-01T17:21:22.723Z,22.40
2019-06-01T17:23:53.993Z,22.20
2019-06-01T17:26:24.922Z,22.10
2019-06-01T17:28:56.065Z,22.10
2019-06-01T17:31:26.947Z,22.10
2019-06-01T17:33:58.330Z,22.10
2019-06-01T17:36:29.707Z,22.00
2019-06-01T17:39:01.911Z,21.90
2019-06-01T17:41:32.901Z,21.90
2019-06-01T17:44:06.580Z,21.90
2019-06-01T17:46:52.269Z,21.90
2019-06-01T17:49:10.079Z,21.80
2019-06-01T17:51:40.993Z,21.90
2019-06-01T17:54:11.879Z,22.10
2019-06-01T17:56:42.716Z,22.00
2019-06-01T17:59:13.684Z,21.90
2019-06-01T18:01:44.617Z,21.80
2019-06-01T18:04:15.383Z,21.70
2019-06-01T18:06:46.618Z,21.60
2019-06-01T18:09:17.780Z,21.60
2019-06-01T18:11:48.805Z,21.50
2019-06-01T18:14:21.099Z,21.50
2019-06-01T18:16:52.030Z,21.40
2019-06-01T18:19:22.991Z,21.40
2019-06-01T18:21:53.903Z,21.30
2019-06-01T18:24:24.784Z,21.20
2019-06-01T18:26:55.683Z,21.20
2019-06-01T18:29:26.600Z,21.20
2019-06-01T18:31:57.767Z,21.10
2019-06-01T18:34:28.686Z,21.00
2019-06-01T18:36:59.671Z,21.00
2019-06-01T18:39:30.509Z,20.90
2019-06-01T18:42:01.528Z,20.90
2019-06-01T18:44:32.487Z,20.80
2019-06-01T18:47:03.689Z,20.80
2019-06-01T18:49:35.028Z,20.70
2019-06-01T18:52:07.081Z,20.70
2019-06-01T18:54:39.318Z,20.60
2019-06-01T18:57:17.554Z,20.70
2019-06-01T18:59:42.528Z,20.60
2019-06-01T19:02:13.164Z,20.50
2019-06-01T19:04:44.158Z,20.50
2019-06-01T19:07:15.460Z,20.40
2019-06-01T19:09:46.741Z,20.30
2019-06-01T19:12:17.848Z,20.20
2019-06-01T19:14:48.743Z,20.20
2019-06-01T19:17:19.946Z,20.10
2019-06-01T19:19:50.886Z,20.10
2019-06-01T19:22:21.752Z,19.90
2019-06-01T19:24:52.630Z,19.90
2019-06-01T19:27:23.873Z,19.80
2019-06-01T19:29:54.859Z,19.70
2019-06-01T19:32:25.764Z,19.70
2019-06-01T19:34:56.523Z,19.60
2019-06-01T19:37:28.066Z,19.50
2019-06-01T19:39:58.914Z,19.50
2019-06-01T19:42:29.829Z,19.40
2019-06-01T19:45:01.495Z,19.30
2019-06-01T19:47:33.757Z,19.30
2019-06-01T19:50:08.208Z,19.20
2019-06-01T19:52:39.486Z,19.20
2019-06-01T19:55:10.806Z,19.00
2019-06-01T19:57:41.748Z,19.00
2019-06-01T20:00:14.157Z,19.00
2019-06-01T20:02:45.370Z,18.90
2019-06-01T20:05:16.701Z,18.90
2019-06-01T20:07:47.770Z,18.80
2019-06-01T20:10:18.763Z,18.70
2019-06-01T20:12:49.787Z,18.70
2019-06-01T20:15:21.553Z,18.70
2019-06-01T20:17:52.918Z,18.70
2019-06-01T20:20:24.152Z,18.60
2019-06-01T20:22:55.305Z,18.50
2019-06-01T20:25:26.145Z,18.40
2019-06-01T20:27:57.104Z,18.30
2019-06-01T20:30:28.032Z,18.30
2019-06-01T20:32:58.948Z,18.20
2019-06-01T20:35:29.868Z,18.20
2019-06-01T20:38:01.086Z,18.30
